sensor_id;sensor_type;location;lat;lon;timestamp;P1;durP1;ratioP1;P2;durP2;ratioP2
54388;SDS011;40975;50.390;8.640;2023-03-01T00:00:10;9.43;;;5.70;;
54388;SDS011;40975;50.390;8.640;2023-03-01T00:02:39;12.27;;;6.60;;
54388;SDS011;40975;50.390;8.640;2023-03-01T00:05:04;10.77;;;6.07;;
54388;SDS011;40975;50.390;8.640;2023-03-01T00:07:30;14.50;;;6.28;;
54388;SDS011;40975;50.390;8.640;2023-03-01T00:09:55;14.45;;;6.38;;
54388;SDS011;40975;50.390;8.640;2023-03-01T00:12:21;11.18;;;5.53;;
54388;SDS011;40975;50.390;8.640;2023-03-01T00:14:47;12.90;;;6.32;;
54388;SDS011;40975;50.390;8.640;2023-03-01T00:17:12;10.73;;;5.80;;
54388;SDS011;40975;50.390;8.640;2023-03-01T00:19:37;12.57;;;6.43;;
54388;SDS011;40975;50.390;8.640;2023-03-01T00:22:03;13.25;;;6.25;;
54388;SDS011;40975;50.390;8.640;2023-03-01T00:24:28;11.07;;;6.38;;
54388;SDS011;40975;50.390;8.640;2023-03-01T00:26:54;10.57;;;6.00;;
54388;SDS011;40975;50.390;8.640;2023-03-01T00:29:23;12.20;;;6.60;;
54388;SDS011;40975;50.390;8.640;2023-03-01T00:31:49;10.70;;;5.47;;
54388;SDS011;40975;50.390;8.640;2023-03-01T00:34:15;11.85;;;6.47;;
54388;SDS011;40975;50.390;8.640;2023-03-01T00:36:41;12.05;;;6.05;;
54388;SDS011;40975;50.390;8.640;2023-03-01T00:39:09;10.65;;;6.00;;
54388;SDS011;40975;50.390;8.640;2023-03-01T00:41:37;10.45;;;5.15;;
54388;SDS011;40975;50.390;8.640;2023-03-01T00:44:02;10.65;;;5.63;;
54388;SDS011;40975;50.390;8.640;2023-03-01T00:46:28;12.18;;;6.43;;
54388;SDS011;40975;50.390;8.640;2023-03-01T00:48:55;10.02;;;5.50;;
54388;SDS011;40975;50.390;8.640;2023-03-01T00:51:22;13.93;;;7.40;;
54388;SDS011;40975;50.390;8.640;2023-03-01T00:53:54;15.65;;;6.80;;
54388;SDS011;40975;50.390;8.640;2023-03-01T00:56:21;16.42;;;6.68;;
54388;SDS011;40975;50.390;8.640;2023-03-01T00:58:47;12.48;;;6.88;;
54388;SDS011;40975;50.390;8.640;2023-03-01T01:01:18;13.15;;;6.50;;
54388;SDS011;40975;50.390;8.640;2023-03-01T01:03:51;13.20;;;6.40;;
54388;SDS011;40975;50.390;8.640;2023-03-01T01:06:22;11.95;;;6.80;;
54388;SDS011;40975;50.390;8.640;2023-03-01T01:08:49;12.00;;;6.70;;
54388;SDS011;40975;50.390;8.640;2023-03-01T01:11:15;15.05;;;6.55;;
54388;SDS011;40975;50.390;8.640;2023-03-01T01:13:43;13.18;;;6.53;;
54388;SDS011;40975;50.390;8.640;2023-03-01T01:16:10;14.15;;;7.05;;
54388;SDS011;40975;50.390;8.640;2023-03-01T01:18:35;10.93;;;6.30;;
54388;SDS011;40975;50.390;8.640;2023-03-01T01:21:07;13.18;;;6.15;;
54388;SDS011;40975;50.390;8.640;2023-03-01T01:23:35;14.63;;;5.75;;
54388;SDS011;40975;50.390;8.640;2023-03-01T01:26:05;13.00;;;6.80;;
54388;SDS011;40975;50.390;8.640;2023-03-01T01:28:35;13.48;;;7.10;;
54388;SDS011;40975;50.390;8.640;2023-03-01T01:31:01;13.45;;;6.63;;
54388;SDS011;40975;50.390;8.640;2023-03-01T01:33:27;14.25;;;7.05;;
54388;SDS011;40975;50.390;8.640;2023-03-01T01:35:52;13.98;;;6.28;;
54388;SDS011;40975;50.390;8.640;2023-03-01T01:38:18;10.68;;;5.97;;
54388;SDS011;40975;50.390;8.640;2023-03-01T01:40:47;14.38;;;7.30;;
54388;SDS011;40975;50.390;8.640;2023-03-01T01:43:18;19.23;;;7.43;;
54388;SDS011;40975;50.390;8.640;2023-03-01T01:45:47;14.95;;;6.55;;
54388;SDS011;40975;50.390;8.640;2023-03-01T01:48:13;12.93;;;6.78;;
54388;SDS011;40975;50.390;8.640;2023-03-01T01:50:41;15.13;;;6.88;;
54388;SDS011;40975;50.390;8.640;2023-03-01T01:53:11;14.80;;;7.05;;
54388;SDS011;40975;50.390;8.640;2023-03-01T01:55:41;14.82;;;6.35;;
54388;SDS011;40975;50.390;8.640;2023-03-01T01:58:11;13.38;;;6.40;;
54388;SDS011;40975;50.390;8.640;2023-03-01T02:00:40;16.15;;;6.95;;
54388;SDS011;40975;50.390;8.640;2023-03-01T02:03:10;13.70;;;6.45;;
54388;SDS011;40975;50.390;8.640;2023-03-01T02:08:29;11.80;;;6.35;;
54388;SDS011;40975;50.390;8.640;2023-03-01T02:10:57;14.18;;;6.15;;
54388;SDS011;40975;50.390;8.640;2023-03-01T02:13:25;15.27;;;7.25;;
54388;SDS011;40975;50.390;8.640;2023-03-01T02:15:51;15.05;;;7.18;;
54388;SDS011;40975;50.390;8.640;2023-03-01T02:18:17;12.50;;;7.40;;
54388;SDS011;40975;50.390;8.640;2023-03-01T02:23:21;14.48;;;7.18;;
54388;SDS011;40975;50.390;8.640;2023-03-01T02:28:35;15.40;;;7.85;;
54388;SDS011;40975;50.390;8.640;2023-03-01T02:31:03;12.98;;;6.55;;
54388;SDS011;40975;50.390;8.640;2023-03-01T02:33:49;12.88;;;6.82;;
54388;SDS011;40975;50.390;8.640;2023-03-01T02:36:19;13.45;;;6.75;;
54388;SDS011;40975;50.390;8.640;2023-03-01T02:38:48;12.40;;;6.95;;
54388;SDS011;40975;50.390;8.640;2023-03-01T02:41:16;13.32;;;7.35;;
54388;SDS011;40975;50.390;8.640;2023-03-01T02:43:44;13.20;;;7.05;;
54388;SDS011;40975;50.390;8.640;2023-03-01T02:46:20;16.25;;;6.68;;
54388;SDS011;40975;50.390;8.640;2023-03-01T02:48:49;11.25;;;6.70;;
54388;SDS011;40975;50.390;8.640;2023-03-01T02:51:24;13.05;;;6.68;;
54388;SDS011;40975;50.390;8.640;2023-03-01T02:56:50;14.30;;;7.25;;
54388;SDS011;40975;50.390;8.640;2023-03-01T02:59:19;15.23;;;6.55;;
54388;SDS011;40975;50.390;8.640;2023-03-01T03:01:47;13.68;;;6.35;;
54388;SDS011;40975;50.390;8.640;2023-03-01T03:04:15;12.70;;;6.43;;
54388;SDS011;40975;50.390;8.640;2023-03-01T03:06:44;14.00;;;7.50;;
54388;SDS011;40975;50.390;8.640;2023-03-01T03:09:10;13.02;;;6.38;;
54388;SDS011;40975;50.390;8.640;2023-03-01T03:11:35;20.92;;;6.97;;
54388;SDS011;40975;50.390;8.640;2023-03-01T03:14:02;11.95;;;6.82;;
54388;SDS011;40975;50.390;8.640;2023-03-01T03:16:28;16.27;;;7.07;;
54388;SDS011;40975;50.390;8.640;2023-03-01T03:18:54;15.90;;;7.60;;
54388;SDS011;40975;50.390;8.640;2023-03-01T03:21:33;16.42;;;7.97;;
54388;SDS011;40975;50.390;8.640;2023-03-01T03:23:59;16.70;;;7.75;;
54388;SDS011;40975;50.390;8.640;2023-03-01T03:26:24;17.30;;;7.10;;
54388;SDS011;40975;50.390;8.640;2023-03-01T03:28:50;18.90;;;7.80;;
54388;SDS011;40975;50.390;8.640;2023-03-01T03:31:15;15.77;;;7.10;;
54388;SDS011;40975;50.390;8.640;2023-03-01T03:33:41;14.13;;;7.15;;
54388;SDS011;40975;50.390;8.640;2023-03-01T03:36:06;18.02;;;7.28;;
54388;SDS011;40975;50.390;8.640;2023-03-01T03:38:38;14.15;;;6.53;;
54388;SDS011;40975;50.390;8.640;2023-03-01T03:41:05;13.88;;;6.63;;
54388;SDS011;40975;50.390;8.640;2023-03-01T03:43:33;14.02;;;7.78;;
54388;SDS011;40975;50.390;8.640;2023-03-01T03:46:00;15.98;;;7.13;;
54388;SDS011;40975;50.390;8.640;2023-03-01T03:48:26;14.02;;;6.65;;
54388;SDS011;40975;50.390;8.640;2023-03-01T03:50:53;14.57;;;6.28;;
54388;SDS011;40975;50.390;8.640;2023-03-01T03:53:20;14.95;;;7.07;;
54388;SDS011;40975;50.390;8.640;2023-03-01T03:55:46;15.32;;;6.88;;
54388;SDS011;40975;50.390;8.640;2023-03-01T03:58:14;17.77;;;8.07;;
54388;SDS011;40975;50.390;8.640;2023-03-01T04:00:42;13.65;;;7.05;;
54388;SDS011;40975;50.390;8.640;2023-03-01T04:03:10;12.68;;;6.88;;
54388;SDS011;40975;50.390;8.640;2023-03-01T04:05:37;19.63;;;7.28;;
54388;SDS011;40975;50.390;8.640;2023-03-01T04:08:04;14.50;;;7.72;;
54388;SDS011;40975;50.390;8.640;2023-03-01T04:10:42;12.77;;;7.03;;
54388;SDS011;40975;50.390;8.640;2023-03-01T04:13:16;14.95;;;7.03;;
54388;SDS011;40975;50.390;8.640;2023-03-01T04:15:45;15.23;;;8.00;;
54388;SDS011;40975;50.390;8.640;2023-03-01T04:18:12;15.82;;;8.30;;
54388;SDS011;40975;50.390;8.640;2023-03-01T04:20:38;12.57;;;6.70;;
54388;SDS011;40975;50.390;8.640;2023-03-01T04:23:11;19.80;;;7.43;;
54388;SDS011;40975;50.390;8.640;2023-03-01T04:25:50;12.68;;;6.30;;
54388;SDS011;40975;50.390;8.640;2023-03-01T04:30:49;17.33;;;7.40;;
54388;SDS011;40975;50.390;8.640;2023-03-01T04:33:14;15.30;;;6.50;;
54388;SDS011;40975;50.390;8.640;2023-03-01T04:35:39;18.08;;;7.30;;
54388;SDS011;40975;50.390;8.640;2023-03-01T04:38:05;11.25;;;6.65;;
54388;SDS011;40975;50.390;8.640;2023-03-01T04:40:31;15.25;;;7.13;;
54388;SDS011;40975;50.390;8.640;2023-03-01T04:42:56;15.93;;;7.05;;
54388;SDS011;40975;50.390;8.640;2023-03-01T04:45:22;15.07;;;7.05;;
54388;SDS011;40975;50.390;8.640;2023-03-01T04:47:47;12.07;;;6.97;;
54388;SDS011;40975;50.390;8.640;2023-03-01T04:50:14;15.32;;;7.63;;
54388;SDS011;40975;50.390;8.640;2023-03-01T04:52:42;15.07;;;7.30;;
54388;SDS011;40975;50.390;8.640;2023-03-01T04:55:08;12.82;;;6.47;;
54388;SDS011;40975;50.390;8.640;2023-03-01T04:57:34;14.73;;;6.93;;
54388;SDS011;40975;50.390;8.640;2023-03-01T05:00:00;13.50;;;6.88;;
54388;SDS011;40975;50.390;8.640;2023-03-01T05:02:25;13.45;;;6.57;;
54388;SDS011;40975;50.390;8.640;2023-03-01T05:04:51;18.27;;;7.18;;
54388;SDS011;40975;50.390;8.640;2023-03-01T05:07:16;17.30;;;7.43;;
54388;SDS011;40975;50.390;8.640;2023-03-01T05:09:46;14.70;;;6.43;;
54388;SDS011;40975;50.390;8.640;2023-03-01T05:12:11;11.25;;;7.03;;
54388;SDS011;40975;50.390;8.640;2023-03-01T05:14:37;14.25;;;7.45;;
54388;SDS011;40975;50.390;8.640;2023-03-01T05:17:04;14.05;;;7.53;;
54388;SDS011;40975;50.390;8.640;2023-03-01T05:19:30;16.50;;;8.00;;
54388;SDS011;40975;50.390;8.640;2023-03-01T05:21:56;13.95;;;7.18;;
54388;SDS011;40975;50.390;8.640;2023-03-01T05:24:32;15.07;;;7.30;;
54388;SDS011;40975;50.390;8.640;2023-03-01T05:26:58;14.05;;;6.47;;
54388;SDS011;40975;50.390;8.640;2023-03-01T05:29:25;15.82;;;7.97;;
54388;SDS011;40975;50.390;8.640;2023-03-01T05:31:56;12.70;;;6.63;;
54388;SDS011;40975;50.390;8.640;2023-03-01T05:34:27;13.20;;;7.00;;
54388;SDS011;40975;50.390;8.640;2023-03-01T05:36:55;16.67;;;7.78;;
54388;SDS011;40975;50.390;8.640;2023-03-01T05:39:21;15.80;;;6.60;;
54388;SDS011;40975;50.390;8.640;2023-03-01T05:41:51;13.73;;;5.97;;
54388;SDS011;40975;50.390;8.640;2023-03-01T05:44:17;14.18;;;7.22;;
54388;SDS011;40975;50.390;8.640;2023-03-01T05:46:43;13.95;;;6.53;;
54388;SDS011;40975;50.390;8.640;2023-03-01T05:49:09;16.15;;;8.23;;
54388;SDS011;40975;50.390;8.640;2023-03-01T05:51:35;16.80;;;6.88;;
54388;SDS011;40975;50.390;8.640;2023-03-01T05:54:00;12.85;;;7.18;;
54388;SDS011;40975;50.390;8.640;2023-03-01T05:56:26;15.55;;;7.68;;
54388;SDS011;40975;50.390;8.640;2023-03-01T05:58:51;12.85;;;6.50;;
54388;SDS011;40975;50.390;8.640;2023-03-01T06:01:16;17.10;;;8.48;;
54388;SDS011;40975;50.390;8.640;2023-03-01T06:03:42;12.60;;;7.22;;
54388;SDS011;40975;50.390;8.640;2023-03-01T06:06:07;14.13;;;7.38;;
54388;SDS011;40975;50.390;8.640;2023-03-01T06:08:33;15.93;;;6.97;;
54388;SDS011;40975;50.390;8.640;2023-03-01T06:10:58;14.68;;;6.40;;
54388;SDS011;40975;50.390;8.640;2023-03-01T06:13:23;15.63;;;6.97;;
54388;SDS011;40975;50.390;8.640;2023-03-01T06:15:49;14.38;;;6.95;;
54388;SDS011;40975;50.390;8.640;2023-03-01T06:18:14;15.07;;;6.80;;
54388;SDS011;40975;50.390;8.640;2023-03-01T06:20:40;14.73;;;7.13;;
54388;SDS011;40975;50.390;8.640;2023-03-01T06:23:05;12.63;;;6.40;;
54388;SDS011;40975;50.390;8.640;2023-03-01T06:25:31;18.17;;;8.13;;
54388;SDS011;40975;50.390;8.640;2023-03-01T06:27:57;10.40;;;6.45;;
54388;SDS011;40975;50.390;8.640;2023-03-01T06:30:23;15.75;;;7.90;;
54388;SDS011;40975;50.390;8.640;2023-03-01T06:32:49;16.35;;;8.48;;
54388;SDS011;40975;50.390;8.640;2023-03-01T06:35:15;15.45;;;7.45;;
54388;SDS011;40975;50.390;8.640;2023-03-01T06:37:45;13.52;;;7.75;;
54388;SDS011;40975;50.390;8.640;2023-03-01T06:40:11;15.50;;;6.93;;
54388;SDS011;40975;50.390;8.640;2023-03-01T06:42:39;16.27;;;7.45;;
54388;SDS011;40975;50.390;8.640;2023-03-01T06:45:06;16.77;;;8.05;;
54388;SDS011;40975;50.390;8.640;2023-03-01T06:47:33;16.95;;;8.38;;
54388;SDS011;40975;50.390;8.640;2023-03-01T06:50:02;16.92;;;8.07;;
54388;SDS011;40975;50.390;8.640;2023-03-01T06:52:27;13.55;;;7.22;;
54388;SDS011;40975;50.390;8.640;2023-03-01T06:54:53;20.05;;;9.02;;
54388;SDS011;40975;50.390;8.640;2023-03-01T06:57:18;15.57;;;6.68;;
54388;SDS011;40975;50.390;8.640;2023-03-01T06:59:44;17.65;;;7.28;;
54388;SDS011;40975;50.390;8.640;2023-03-01T07:02:10;18.08;;;8.75;;
54388;SDS011;40975;50.390;8.640;2023-03-01T07:04:36;13.65;;;7.57;;
54388;SDS011;40975;50.390;8.640;2023-03-01T07:07:02;15.45;;;8.35;;
54388;SDS011;40975;50.390;8.640;2023-03-01T07:09:27;14.80;;;7.43;;
54388;SDS011;40975;50.390;8.640;2023-03-01T07:11:52;18.92;;;7.47;;
54388;SDS011;40975;50.390;8.640;2023-03-01T07:14:18;16.15;;;7.78;;
54388;SDS011;40975;50.390;8.640;2023-03-01T07:16:44;16.63;;;7.15;;
54388;SDS011;40975;50.390;8.640;2023-03-01T07:19:10;15.15;;;7.65;;
54388;SDS011;40975;50.390;8.640;2023-03-01T07:21:36;15.43;;;7.47;;
54388;SDS011;40975;50.390;8.640;2023-03-01T07:24:03;15.52;;;7.60;;
54388;SDS011;40975;50.390;8.640;2023-03-01T07:26:31;16.35;;;7.82;;
54388;SDS011;40975;50.390;8.640;2023-03-01T07:28:58;17.85;;;8.00;;
54388;SDS011;40975;50.390;8.640;2023-03-01T07:31:24;15.55;;;8.05;;
54388;SDS011;40975;50.390;8.640;2023-03-01T07:33:50;17.92;;;8.73;;
54388;SDS011;40975;50.390;8.640;2023-03-01T07:36:15;16.73;;;7.93;;
54388;SDS011;40975;50.390;8.640;2023-03-01T07:38:40;14.00;;;6.72;;
54388;SDS011;40975;50.390;8.640;2023-03-01T07:41:06;13.65;;;7.78;;
54388;SDS011;40975;50.390;8.640;2023-03-01T07:43:31;14.63;;;7.63;;
54388;SDS011;40975;50.390;8.640;2023-03-01T07:46:00;14.50;;;7.90;;
54388;SDS011;40975;50.390;8.640;2023-03-01T07:48:27;16.27;;;8.00;;
54388;SDS011;40975;50.390;8.640;2023-03-01T07:50:53;14.30;;;7.32;;
54388;SDS011;40975;50.390;8.640;2023-03-01T07:53:19;13.55;;;7.03;;
54388;SDS011;40975;50.390;8.640;2023-03-01T07:55:44;17.02;;;8.07;;
54388;SDS011;40975;50.390;8.640;2023-03-01T07:58:09;12.23;;;6.90;;
54388;SDS011;40975;50.390;8.640;2023-03-01T08:00:35;15.65;;;7.32;;
54388;SDS011;40975;50.390;8.640;2023-03-01T08:03:01;12.65;;;7.93;;
54388;SDS011;40975;50.390;8.640;2023-03-01T08:05:27;14.02;;;8.15;;
54388;SDS011;40975;50.390;8.640;2023-03-01T08:07:52;11.32;;;6.97;;
54388;SDS011;40975;50.390;8.640;2023-03-01T08:10:18;12.50;;;8.05;;
54388;SDS011;40975;50.390;8.640;2023-03-01T08:12:44;18.45;;;8.60;;
54388;SDS011;40975;50.390;8.640;2023-03-01T08:15:09;14.68;;;8.45;;
54388;SDS011;40975;50.390;8.640;2023-03-01T08:17:35;15.18;;;7.97;;
54388;SDS011;40975;50.390;8.640;2023-03-01T08:20:00;13.20;;;7.72;;
54388;SDS011;40975;50.390;8.640;2023-03-01T08:22:26;12.60;;;7.35;;
54388;SDS011;40975;50.390;8.640;2023-03-01T08:24:51;15.40;;;7.57;;
54388;SDS011;40975;50.390;8.640;2023-03-01T08:27:16;12.57;;;7.15;;
54388;SDS011;40975;50.390;8.640;2023-03-01T08:29:42;16.33;;;8.48;;
54388;SDS011;40975;50.390;8.640;2023-03-01T08:32:07;15.10;;;7.28;;
54388;SDS011;40975;50.390;8.640;2023-03-01T08:34:33;15.73;;;8.32;;
54388;SDS011;40975;50.390;8.640;2023-03-01T08:37:00;16.90;;;8.90;;
54388;SDS011;40975;50.390;8.640;2023-03-01T08:39:26;17.55;;;9.00;;
54388;SDS011;40975;50.390;8.640;2023-03-01T08:41:51;15.18;;;7.35;;
54388;SDS011;40975;50.390;8.640;2023-03-01T08:44:16;13.70;;;7.40;;
54388;SDS011;40975;50.390;8.640;2023-03-01T08:46:42;16.55;;;7.97;;
54388;SDS011;40975;50.390;8.640;2023-03-01T08:49:12;12.27;;;7.15;;
54388;SDS011;40975;50.390;8.640;2023-03-01T08:51:39;15.40;;;8.05;;
54388;SDS011;40975;50.390;8.640;2023-03-01T08:54:06;15.35;;;8.25;;
54388;SDS011;40975;50.390;8.640;2023-03-01T08:56:34;16.75;;;7.63;;
54388;SDS011;40975;50.390;8.640;2023-03-01T08:59:00;14.60;;;8.13;;
54388;SDS011;40975;50.390;8.640;2023-03-01T09:01:25;10.73;;;7.20;;
54388;SDS011;40975;50.390;8.640;2023-03-01T09:03:51;12.15;;;7.25;;
54388;SDS011;40975;50.390;8.640;2023-03-01T09:06:16;12.82;;;7.53;;
54388;SDS011;40975;50.390;8.640;2023-03-01T09:08:43;12.18;;;7.22;;
54388;SDS011;40975;50.390;8.640;2023-03-01T09:11:11;11.07;;;7.40;;
54388;SDS011;40975;50.390;8.640;2023-03-01T09:13:41;12.23;;;7.30;;
54388;SDS011;40975;50.390;8.640;2023-03-01T09:16:07;12.88;;;7.03;;
54388;SDS011;40975;50.390;8.640;2023-03-01T09:18:33;12.45;;;7.32;;
54388;SDS011;40975;50.390;8.640;2023-03-01T09:21:09;10.88;;;6.82;;
54388;SDS011;40975;50.390;8.640;2023-03-01T09:23:37;9.32;;;6.30;;
54388;SDS011;40975;50.390;8.640;2023-03-01T09:26:07;13.65;;;7.50;;
54388;SDS011;40975;50.390;8.640;2023-03-01T09:28:37;11.60;;;6.50;;
54388;SDS011;40975;50.390;8.640;2023-03-01T09:31:03;12.98;;;6.82;;
54388;SDS011;40975;50.390;8.640;2023-03-01T09:33:30;11.82;;;7.55;;
54388;SDS011;40975;50.390;8.640;2023-03-01T09:36:00;11.80;;;6.72;;
54388;SDS011;40975;50.390;8.640;2023-03-01T09:38:28;12.73;;;7.67;;
54388;SDS011;40975;50.390;8.640;2023-03-01T09:40:53;12.98;;;7.13;;
54388;SDS011;40975;50.390;8.640;2023-03-01T09:43:27;11.23;;;7.47;;
54388;SDS011;40975;50.390;8.640;2023-03-01T09:46:01;12.38;;;7.03;;
54388;SDS011;40975;50.390;8.640;2023-03-01T09:48:30;10.13;;;7.03;;
54388;SDS011;40975;50.390;8.640;2023-03-01T09:51:02;11.80;;;7.43;;
54388;SDS011;40975;50.390;8.640;2023-03-01T09:53:37;11.55;;;7.15;;
54388;SDS011;40975;50.390;8.640;2023-03-01T09:56:10;9.82;;;6.65;;
54388;SDS011;40975;50.390;8.640;2023-03-01T09:58:52;10.63;;;6.85;;
54388;SDS011;40975;50.390;8.640;2023-03-01T10:01:32;9.63;;;6.88;;
54388;SDS011;40975;50.390;8.640;2023-03-01T10:04:11;10.70;;;7.28;;
54388;SDS011;40975;50.390;8.640;2023-03-01T10:09:33;11.50;;;7.53;;
54388;SDS011;40975;50.390;8.640;2023-03-01T10:11:59;11.82;;;6.95;;
54388;SDS011;40975;50.390;8.640;2023-03-01T10:14:32;11.90;;;7.18;;
54388;SDS011;40975;50.390;8.640;2023-03-01T10:19:55;11.20;;;6.28;;
54388;SDS011;40975;50.390;8.640;2023-03-01T10:22:37;9.00;;;6.55;;
54388;SDS011;40975;50.390;8.640;2023-03-01T10:25:02;10.75;;;7.93;;
54388;SDS011;40975;50.390;8.640;2023-03-01T10:32:47;8.95;;;6.32;;
54388;SDS011;40975;50.390;8.640;2023-03-01T10:35:23;10.82;;;6.78;;
54388;SDS011;40975;50.390;8.640;2023-03-01T10:37:57;11.60;;;7.53;;
54388;SDS011;40975;50.390;8.640;2023-03-01T10:40:36;8.60;;;6.78;;
54388;SDS011;40975;50.390;8.640;2023-03-01T10:43:15;8.70;;;6.63;;
54388;SDS011;40975;50.390;8.640;2023-03-01T10:45:41;11.02;;;7.32;;
54388;SDS011;40975;50.390;8.640;2023-03-01T10:48:14;9.82;;;7.10;;
54388;SDS011;40975;50.390;8.640;2023-03-01T10:56:12;8.75;;;6.35;;
54388;SDS011;40975;50.390;8.640;2023-03-01T10:58:40;9.93;;;6.38;;
54388;SDS011;40975;50.390;8.640;2023-03-01T11:03:54;9.00;;;6.63;;
54388;SDS011;40975;50.390;8.640;2023-03-01T11:06:30;9.85;;;6.72;;
54388;SDS011;40975;50.390;8.640;2023-03-01T11:08:55;9.88;;;6.30;;
54388;SDS011;40975;50.390;8.640;2023-03-01T11:11:22;9.70;;;6.35;;
54388;SDS011;40975;50.390;8.640;2023-03-01T11:13:52;10.85;;;7.38;;
54388;SDS011;40975;50.390;8.640;2023-03-01T11:16:24;11.88;;;6.97;;
54388;SDS011;40975;50.390;8.640;2023-03-01T11:21:44;9.95;;;6.63;;
54388;SDS011;40975;50.390;8.640;2023-03-01T11:24:18;8.73;;;5.93;;
54388;SDS011;40975;50.390;8.640;2023-03-01T11:26:46;10.15;;;6.50;;
54388;SDS011;40975;50.390;8.640;2023-03-01T11:29:50;9.02;;;6.35;;
54388;SDS011;40975;50.390;8.640;2023-03-01T11:32:12;9.45;;;6.60;;
54388;SDS011;40975;50.390;8.640;2023-03-01T11:34:47;11.63;;;6.07;;
54388;SDS011;40975;50.390;8.640;2023-03-01T11:37:21;11.00;;;6.60;;
54388;SDS011;40975;50.390;8.640;2023-03-01T11:42:41;7.50;;;5.65;;
54388;SDS011;40975;50.390;8.640;2023-03-01T11:45:13;10.43;;;7.00;;
54388;SDS011;40975;50.390;8.640;2023-03-01T11:47:48;12.82;;;6.97;;
54388;SDS011;40975;50.390;8.640;2023-03-01T11:50:44;10.90;;;6.82;;
54388;SDS011;40975;50.390;8.640;2023-03-01T11:53:24;9.57;;;5.97;;
54388;SDS011;40975;50.390;8.640;2023-03-01T11:56:03;8.27;;;5.53;;
54388;SDS011;40975;50.390;8.640;2023-03-01T11:58:34;8.02;;;5.20;;
54388;SDS011;40975;50.390;8.640;2023-03-01T12:01:33;11.13;;;6.05;;
54388;SDS011;40975;50.390;8.640;2023-03-01T12:06:59;9.35;;;4.82;;
54388;SDS011;40975;50.390;8.640;2023-03-01T12:09:47;9.02;;;5.40;;
54388;SDS011;40975;50.390;8.640;2023-03-01T12:12:25;6.40;;;4.50;;
54388;SDS011;40975;50.390;8.640;2023-03-01T12:15:17;8.65;;;5.47;;
54388;SDS011;40975;50.390;8.640;2023-03-01T12:17:48;10.05;;;5.70;;
54388;SDS011;40975;50.390;8.640;2023-03-01T12:20:56;7.00;;;5.03;;
54388;SDS011;40975;50.390;8.640;2023-03-01T12:23:34;10.38;;;5.50;;
54388;SDS011;40975;50.390;8.640;2023-03-01T12:29:13;9.27;;;5.35;;
54388;SDS011;40975;50.390;8.640;2023-03-01T12:31:53;7.72;;;5.18;;
54388;SDS011;40975;50.390;8.640;2023-03-01T12:34:42;9.43;;;5.50;;
54388;SDS011;40975;50.390;8.640;2023-03-01T12:37:21;8.93;;;5.20;;
54388;SDS011;40975;50.390;8.640;2023-03-01T12:48:52;9.60;;;5.40;;
54388;SDS011;40975;50.390;8.640;2023-03-01T12:51:28;8.95;;;5.07;;
54388;SDS011;40975;50.390;8.640;2023-03-01T12:53:57;8.80;;;5.35;;
54388;SDS011;40975;50.390;8.640;2023-03-01T12:56:27;10.90;;;5.45;;
54388;SDS011;40975;50.390;8.640;2023-03-01T12:59:02;9.10;;;5.55;;
54388;SDS011;40975;50.390;8.640;2023-03-01T13:02:02;8.90;;;5.13;;
54388;SDS011;40975;50.390;8.640;2023-03-01T13:09:48;8.57;;;5.25;;
54388;SDS011;40975;50.390;8.640;2023-03-01T13:20:34;7.50;;;5.45;;
54388;SDS011;40975;50.390;8.640;2023-03-01T13:26:02;6.88;;;4.78;;
54388;SDS011;40975;50.390;8.640;2023-03-01T13:30:56;9.13;;;5.63;;
54388;SDS011;40975;50.390;8.640;2023-03-01T13:35:57;7.50;;;4.70;;
54388;SDS011;40975;50.390;8.640;2023-03-01T13:46:49;7.25;;;4.45;;
54388;SDS011;40975;50.390;8.640;2023-03-01T13:49:23;9.80;;;5.05;;
54388;SDS011;40975;50.390;8.640;2023-03-01T13:51:52;6.72;;;4.32;;
54388;SDS011;40975;50.390;8.640;2023-03-01T13:54:29;7.70;;;4.78;;
54388;SDS011;40975;50.390;8.640;2023-03-01T13:56:57;8.15;;;5.05;;
54388;SDS011;40975;50.390;8.640;2023-03-01T13:59:24;7.80;;;4.80;;
54388;SDS011;40975;50.390;8.640;2023-03-01T14:01:56;6.68;;;4.40;;
54388;SDS011;40975;50.390;8.640;2023-03-01T14:04:26;6.03;;;4.60;;
54388;SDS011;40975;50.390;8.640;2023-03-01T14:07:16;6.05;;;4.10;;
54388;SDS011;40975;50.390;8.640;2023-03-01T14:09:44;9.23;;;5.07;;
54388;SDS011;40975;50.390;8.640;2023-03-01T14:12:15;6.93;;;4.30;;
54388;SDS011;40975;50.390;8.640;2023-03-01T14:14:52;8.10;;;4.90;;
54388;SDS011;40975;50.390;8.640;2023-03-01T14:17:29;9.25;;;4.93;;
54388;SDS011;40975;50.390;8.640;2023-03-01T14:20:07;9.85;;;5.55;;
54388;SDS011;40975;50.390;8.640;2023-03-01T14:22:37;7.60;;;5.20;;
54388;SDS011;40975;50.390;8.640;2023-03-01T14:25:17;7.50;;;4.55;;
54388;SDS011;40975;50.390;8.640;2023-03-01T14:27:50;8.00;;;4.43;;
54388;SDS011;40975;50.390;8.640;2023-03-01T14:30:24;10.32;;;5.50;;
54388;SDS011;40975;50.390;8.640;2023-03-01T14:32:57;7.88;;;4.78;;
54388;SDS011;40975;50.390;8.640;2023-03-01T14:35:25;9.02;;;5.55;;
54388;SDS011;40975;50.390;8.640;2023-03-01T14:37:56;8.68;;;4.95;;
54388;SDS011;40975;50.390;8.640;2023-03-01T14:42:52;6.03;;;4.10;;
54388;SDS011;40975;50.390;8.640;2023-03-01T14:45:20;9.55;;;5.05;;
54388;SDS011;40975;50.390;8.640;2023-03-01T14:47:46;10.80;;;5.22;;
54388;SDS011;40975;50.390;8.640;2023-03-01T14:52:52;8.98;;;5.43;;
54388;SDS011;40975;50.390;8.640;2023-03-01T14:55:31;9.30;;;4.57;;
54388;SDS011;40975;50.390;8.640;2023-03-01T14:58:02;7.97;;;4.43;;
54388;SDS011;40975;50.390;8.640;2023-03-01T15:00:29;9.73;;;4.88;;
54388;SDS011;40975;50.390;8.640;2023-03-01T15:02:56;7.82;;;4.35;;
54388;SDS011;40975;50.390;8.640;2023-03-01T15:07:57;12.43;;;5.00;;
54388;SDS011;40975;50.390;8.640;2023-03-01T15:10:27;8.73;;;4.45;;
54388;SDS011;40975;50.390;8.640;2023-03-01T15:12:55;8.07;;;4.43;;
54388;SDS011;40975;50.390;8.640;2023-03-01T15:15:22;7.93;;;5.10;;
54388;SDS011;40975;50.390;8.640;2023-03-01T15:18:02;9.40;;;4.78;;
54388;SDS011;40975;50.390;8.640;2023-03-01T15:20:30;7.05;;;4.72;;
54388;SDS011;40975;50.390;8.640;2023-03-01T15:23:00;8.38;;;4.30;;
54388;SDS011;40975;50.390;8.640;2023-03-01T15:25:27;8.30;;;4.57;;
54388;SDS011;40975;50.390;8.640;2023-03-01T15:27:55;7.05;;;4.80;;
54388;SDS011;40975;50.390;8.640;2023-03-01T15:30:26;7.72;;;4.05;;
54388;SDS011;40975;50.390;8.640;2023-03-01T15:35:52;8.90;;;4.07;;
54388;SDS011;40975;50.390;8.640;2023-03-01T15:38:35;6.93;;;3.92;;
54388;SDS011;40975;50.390;8.640;2023-03-01T15:41:22;11.02;;;4.15;;
54388;SDS011;40975;50.390;8.640;2023-03-01T15:43:47;6.78;;;4.07;;
54388;SDS011;40975;50.390;8.640;2023-03-01T15:46:30;9.45;;;4.40;;
54388;SDS011;40975;50.390;8.640;2023-03-01T15:48:58;8.90;;;4.80;;
54388;SDS011;40975;50.390;8.640;2023-03-01T15:51:30;11.38;;;4.07;;
54388;SDS011;40975;50.390;8.640;2023-03-01T15:53:59;6.70;;;3.90;;
54388;SDS011;40975;50.390;8.640;2023-03-01T15:56:26;9.80;;;4.25;;
54388;SDS011;40975;50.390;8.640;2023-03-01T15:58:51;10.50;;;5.05;;
54388;SDS011;40975;50.390;8.640;2023-03-01T16:01:17;8.13;;;4.32;;
54388;SDS011;40975;50.390;8.640;2023-03-01T16:03:43;6.18;;;3.85;;
54388;SDS011;40975;50.390;8.640;2023-03-01T16:06:10;8.23;;;4.75;;
54388;SDS011;40975;50.390;8.640;2023-03-01T16:08:36;7.38;;;4.13;;
54388;SDS011;40975;50.390;8.640;2023-03-01T16:11:02;8.95;;;4.30;;
54388;SDS011;40975;50.390;8.640;2023-03-01T16:13:30;9.25;;;4.68;;
54388;SDS011;40975;50.390;8.640;2023-03-01T16:15:57;9.63;;;4.65;;
54388;SDS011;40975;50.390;8.640;2023-03-01T16:18:23;13.32;;;5.32;;
54388;SDS011;40975;50.390;8.640;2023-03-01T16:20:48;6.63;;;3.67;;
54388;SDS011;40975;50.390;8.640;2023-03-01T16:23:14;6.82;;;4.22;;